KCNU/CNU METAR and TAF weather

Enter ICAO airport designator
Station Type Date Time Source
KCNU METAR 2022/05/23 13:52 UTC NOAA

KCNU 231352Z AUTO 09008KT 10SM FEW110 14/07 A3024 RMK AO2 SLP237 T01440072


Station Type Date Time Source
KCNU Decoded METAR 2022/05/23 13:52 UTC NOAA

CHANUTE JOHNSON AIRPORT, KS, United States (KCNU) 37-40N 95-29W 297M
May 23, 2022 - 09:52 AM EDT / 2022.05.23 1352 UTC
Wind: from the E (090 degrees) at 9 MPH (8 KT):0
Visibility: 10 mile(s):0
Sky conditions: mostly clear
Temperature: 57.9 F (14.4 C)
Dew Point: 45.0 F (7.2 C)
Relative Humidity: 61%
Pressure (altimeter): 30.24 in. Hg (1024 hPa)
ob: KCNU 231352Z AUTO 09008KT 10SM FEW110 14/07 A3024 RMK AO2 SLP237 T01440072
cycle: 14

Station Type Date Time Source
KCNU TAF 2022/05/23 12:22 UTC NOAA

TAF KCNU 231120Z 2312/2412 07006KT P6SM SCT200
FM232200 11010KT P6SM VCSH BKN040
FM240500 07007KT 6SM SHRA BR OVC029

Example: see airport list